createdAt,value
2018-07-25T00:00:02.298Z,2.35
2018-07-25T00:02:30.689Z,2.17
2018-07-25T00:04:59.015Z,2.22
2018-07-25T00:07:27.399Z,2.67
2018-07-25T00:09:55.766Z,2.10
2018-07-25T00:12:24.126Z,2.62
2018-07-25T00:14:52.425Z,2.35
2018-07-25T00:17:20.774Z,2.55
2018-07-25T00:19:49.179Z,2.90
2018-07-25T00:22:17.562Z,2.65
2018-07-25T00:24:45.880Z,2.50
2018-07-25T00:27:14.205Z,2.12
2018-07-25T00:29:42.659Z,2.55
2018-07-25T00:32:11.111Z,3.00
2018-07-25T00:34:39.535Z,2.67
2018-07-25T00:37:08.141Z,1.90
2018-07-25T00:39:36.467Z,2.60
2018-07-25T00:42:04.795Z,2.30
2018-07-25T00:44:33.178Z,2.50
2018-07-25T00:47:01.516Z,2.70
2018-07-25T00:49:29.862Z,2.45
2018-07-25T00:51:58.208Z,2.52
2018-07-25T00:54:26.520Z,2.25
2018-07-25T00:56:54.896Z,2.77
2018-07-25T00:59:23.239Z,2.72
2018-07-25T01:01:51.615Z,2.30
2018-07-25T01:04:19.943Z,2.20
2018-07-25T01:06:48.318Z,3.05
2018-07-25T01:09:16.785Z,2.52
2018-07-25T01:11:45.154Z,2.80
2018-07-25T01:14:13.539Z,2.70
2018-07-25T01:16:41.892Z,2.60
2018-07-25T01:19:10.216Z,2.25
2018-07-25T01:21:38.595Z,2.37
2018-07-25T01:24:06.920Z,2.80
2018-07-25T01:26:41.634Z,2.58
2018-07-25T01:29:09.950Z,3.15
2018-07-25T01:31:38.310Z,3.05
2018-07-25T01:34:06.660Z,3.10
2018-07-25T01:36:35.016Z,3.45
2018-07-25T01:39:03.744Z,3.20
2018-07-25T01:41:32.119Z,3.22
2018-07-25T01:44:00.428Z,2.90
2018-07-25T01:46:28.757Z,2.50
2018-07-25T01:48:57.113Z,2.62
2018-07-25T01:51:25.464Z,3.08
2018-07-25T01:53:53.864Z,2.72
2018-07-25T01:56:22.201Z,2.77
2018-07-25T01:58:50.565Z,3.17
2018-07-25T02:01:18.990Z,3.20
2018-07-25T02:03:47.359Z,3.30
2018-07-25T02:06:15.672Z,2.55
2018-07-25T02:08:44.037Z,2.83
2018-07-25T02:11:12.482Z,2.92
2018-07-25T02:13:40.808Z,3.10
2018-07-25T02:16:09.144Z,3.40
2018-07-25T02:18:37.503Z,3.05
2018-07-25T02:21:05.983Z,2.62
2018-07-25T02:23:34.329Z,3.40
2018-07-25T02:26:02.700Z,3.17
2018-07-25T02:28:31.106Z,3.40
2018-07-25T02:30:59.929Z,3.70
2018-07-25T02:33:33.604Z,3.65
2018-07-25T02:36:01.980Z,3.85
2018-07-25T02:38:30.334Z,3.75
2018-07-25T02:40:58.677Z,3.60
2018-07-25T02:43:27.112Z,3.58
2018-07-25T02:45:55.477Z,3.58
2018-07-25T02:48:23.852Z,3.70
2018-07-25T02:50:52.206Z,4.03
2018-07-25T02:53:20.577Z,3.27
2018-07-25T02:55:48.996Z,4.05
2018-07-25T02:58:17.378Z,3.40
2018-07-25T03:00:45.759Z,3.50
2018-07-25T03:03:14.093Z,4.35
2018-07-25T03:05:42.436Z,3.62
2018-07-25T03:08:10.780Z,3.50
2018-07-25T03:10:43.799Z,3.35
2018-07-25T03:13:12.174Z,2.92
2018-07-25T03:15:40.577Z,3.55
2018-07-25T03:18:08.977Z,4.00
2018-07-25T03:20:37.436Z,3.60
2018-07-25T03:23:05.799Z,3.72
2018-07-25T03:25:34.162Z,4.05
2018-07-25T03:28:02.554Z,3.60
2018-07-25T03:30:30.900Z,3.60
2018-07-25T03:32:59.238Z,3.42
2018-07-25T03:35:27.592Z,4.37
2018-07-25T03:37:55.975Z,3.62
2018-07-25T03:40:24.327Z,3.95
2018-07-25T03:42:52.955Z,4.53
2018-07-25T03:45:21.320Z,3.83
2018-07-25T03:47:49.656Z,4.20
2018-07-25T03:50:18.010Z,4.03
2018-07-25T03:52:46.424Z,4.28
2018-07-25T03:55:14.760Z,4.28
2018-07-25T03:57:43.155Z,4.00
2018-07-25T04:00:11.657Z,4.58
2018-07-25T04:02:40.093Z,4.03
2018-07-25T04:05:08.434Z,4.53
2018-07-25T04:07:36.791Z,3.67
2018-07-25T04:10:05.608Z,3.60
2018-07-25T04:12:33.998Z,3.83
2018-07-25T04:15:02.351Z,4.40
2018-07-25T04:17:37.241Z,4.00
2018-07-25T04:20:05.881Z,4.03
2018-07-25T04:22:34.221Z,5.12
2018-07-25T04:25:02.571Z,5.75
2018-07-25T04:27:30.944Z,6.05
2018-07-25T04:29:59.324Z,6.47
2018-07-25T04:32:27.720Z,6.10
2018-07-25T04:34:56.100Z,6.30
2018-07-25T04:37:24.481Z,4.60
2018-07-25T04:39:52.864Z,5.75
2018-07-25T04:42:21.231Z,5.08
2018-07-25T04:44:49.657Z,4.72
2018-07-25T04:47:18.031Z,4.72
2018-07-25T04:49:46.818Z,5.22
2018-07-25T04:52:15.500Z,5.22
2018-07-25T04:54:44.192Z,4.35
2018-07-25T04:57:12.639Z,4.05
2018-07-25T04:59:41.099Z,4.05
2018-07-25T05:02:09.724Z,4.03
2018-07-25T05:04:38.100Z,4.08
2018-07-25T05:07:06.605Z,3.30
2018-07-25T05:09:34.972Z,4.17
2018-07-25T05:12:03.881Z,3.80
2018-07-25T05:14:32.247Z,3.90
2018-07-25T05:17:00.578Z,3.47
2018-07-25T05:19:28.942Z,3.75
2018-07-25T05:21:57.395Z,3.77
2018-07-25T05:24:25.862Z,4.10
2018-07-25T05:26:54.231Z,3.45
2018-07-25T05:29:22.800Z,3.75
2018-07-25T05:31:51.172Z,3.87
2018-07-25T05:34:19.595Z,3.87
2018-07-25T05:36:47.968Z,3.55
2018-07-25T05:39:16.352Z,3.15
2018-07-25T05:41:44.964Z,3.65
2018-07-25T05:44:13.311Z,3.80
2018-07-25T05:46:41.821Z,3.83
2018-07-25T05:49:10.649Z,3.87
2018-07-25T05:51:39.017Z,3.95
2018-07-25T05:54:07.130Z,3.60
2018-07-25T05:56:35.451Z,2.95
2018-07-25T05:59:03.804Z,3.90
2018-07-25T06:01:32.174Z,3.65
2018-07-25T06:04:00.613Z,3.77
2018-07-25T06:06:29.136Z,3.58
2018-07-25T06:08:57.509Z,3.52
2018-07-25T06:11:25.971Z,2.87
2018-07-25T06:13:54.315Z,2.72
2018-07-25T06:16:22.682Z,2.70
2018-07-25T06:18:51.048Z,2.80
2018-07-25T06:21:19.487Z,3.25
2018-07-25T06:23:47.821Z,3.72
2018-07-25T06:26:16.227Z,3.58
2018-07-25T06:28:44.578Z,2.65
2018-07-25T06:31:13.008Z,2.27
2018-07-25T06:33:41.313Z,2.60
2018-07-25T06:36:09.730Z,3.42
2018-07-25T06:38:38.152Z,3.10
2018-07-25T06:41:06.531Z,2.58
2018-07-25T06:43:34.926Z,2.40
2018-07-25T06:46:03.301Z,3.15
2018-07-25T06:48:31.658Z,2.65
2018-07-25T06:50:59.998Z,2.60
2018-07-25T06:53:28.323Z,4.12
2018-07-25T06:55:56.691Z,3.00
2018-07-25T06:58:25.075Z,3.22
2018-07-25T07:00:53.500Z,2.42
2018-07-25T07:03:24.894Z,3.17
2018-07-25T07:05:53.244Z,3.52
2018-07-25T07:08:21.587Z,2.70
2018-07-25T07:10:49.993Z,2.72
2018-07-25T07:13:18.358Z,3.45
2018-07-25T07:15:46.757Z,3.25
2018-07-25T07:18:15.098Z,3.08
2018-07-25T07:20:43.460Z,3.05
2018-07-25T07:23:11.859Z,2.02
2018-07-25T07:25:40.368Z,2.67
2018-07-25T07:28:08.674Z,2.80
2018-07-25T07:30:37.027Z,2.98
2018-07-25T07:33:05.392Z,2.25
2018-07-25T07:35:36.875Z,2.75
2018-07-25T07:38:05.727Z,2.22
2018-07-25T07:40:34.139Z,2.45
2018-07-25T07:43:02.523Z,1.90
2018-07-25T07:45:30.908Z,1.75
2018-07-25T07:47:59.243Z,1.60
2018-07-25T07:50:27.614Z,1.25
2018-07-25T07:52:55.970Z,1.80
2018-07-25T07:55:24.306Z,4.12
2018-07-25T07:57:52.802Z,1.77
2018-07-25T08:00:21.244Z,1.95
2018-07-25T08:02:49.601Z,1.37
2018-07-25T08:05:17.995Z,1.70
2018-07-25T08:07:46.337Z,1.80
2018-07-25T08:10:14.800Z,1.72
2018-07-25T08:12:43.158Z,2.08
2018-07-25T08:15:11.246Z,1.50
2018-07-25T08:17:39.994Z,1.82
2018-07-25T08:20:08.348Z,1.72
2018-07-25T08:22:36.708Z,1.82
2018-07-25T08:25:05.070Z,2.33
2018-07-25T08:27:33.419Z,2.27
2018-07-25T08:30:01.756Z,2.08
2018-07-25T08:32:30.096Z,1.80
2018-07-25T08:34:58.423Z,1.85
2018-07-25T08:37:26.794Z,2.30
2018-07-25T08:39:55.168Z,1.92
2018-07-25T08:42:23.505Z,1.87
2018-07-25T08:44:52.008Z,1.75
2018-07-25T08:47:20.473Z,2.02
2018-07-25T08:49:48.818Z,1.90
2018-07-25T08:52:17.187Z,1.90
2018-07-25T08:54:45.574Z,1.90
2018-07-25T08:57:13.914Z,1.55
2018-07-25T08:59:42.274Z,2.08
2018-07-25T09:02:10.753Z,1.62
2018-07-25T09:04:39.088Z,1.77
2018-07-25T09:07:07.444Z,1.92
2018-07-25T09:09:42.807Z,1.80
2018-07-25T09:12:11.215Z,1.70
2018-07-25T09:14:39.540Z,1.92
2018-07-25T09:17:07.952Z,1.70
2018-07-25T09:19:36.381Z,1.50
2018-07-25T09:22:04.832Z,1.70
2018-07-25T09:24:33.181Z,1.62
2018-07-25T09:27:01.606Z,1.60
2018-07-25T09:29:29.980Z,2.02
2018-07-25T09:31:58.363Z,1.92
2018-07-25T09:34:26.787Z,2.15
2018-07-25T09:36:55.215Z,1.77
2018-07-25T09:39:23.655Z,1.70
2018-07-25T09:41:52.061Z,1.90
2018-07-25T09:44:20.465Z,1.60
2018-07-25T09:46:49.121Z,1.60
2018-07-25T09:49:17.464Z,2.20
2018-07-25T09:51:46.138Z,1.55
2018-07-25T09:54:14.601Z,2.42
2018-07-25T09:56:43.095Z,2.20
2018-07-25T09:59:11.532Z,1.80
2018-07-25T10:01:39.911Z,1.67
2018-07-25T10:04:11.827Z,2.22
2018-07-25T10:06:40.200Z,1.37
2018-07-25T10:09:10.684Z,1.87
2018-07-25T10:11:39.079Z,2.00
2018-07-25T10:14:07.462Z,2.10
2018-07-25T10:16:35.800Z,1.87
2018-07-25T10:19:04.179Z,2.40
2018-07-25T10:21:32.587Z,2.22
2018-07-25T10:24:00.956Z,1.80
2018-07-25T10:26:29.354Z,2.02
2018-07-25T10:28:57.845Z,2.00
2018-07-25T10:31:26.232Z,1.77
2018-07-25T10:33:54.607Z,2.00
2018-07-25T10:36:22.993Z,1.50
2018-07-25T10:38:51.412Z,1.98
2018-07-25T10:41:19.815Z,2.10
2018-07-25T10:43:48.557Z,1.60
2018-07-25T10:46:16.980Z,1.35
2018-07-25T10:48:45.453Z,2.08
2018-07-25T10:51:13.926Z,2.02
2018-07-25T10:53:42.356Z,1.90
2018-07-25T10:56:10.824Z,1.70
2018-07-25T10:58:39.229Z,1.60
2018-07-25T11:01:07.692Z,1.72
2018-07-25T11:03:36.188Z,1.35
2018-07-25T11:06:04.623Z,1.80
2018-07-25T11:08:33.032Z,1.60
2018-07-25T11:11:01.449Z,1.32
2018-07-25T11:13:29.825Z,2.17
2018-07-25T11:15:58.173Z,1.45
2018-07-25T11:18:26.691Z,1.15
2018-07-25T11:20:55.144Z,1.32
2018-07-25T11:23:23.556Z,0.93
2018-07-25T11:25:51.630Z,1.50
2018-07-25T11:28:23.092Z,1.20
2018-07-25T11:30:51.514Z,1.00
2018-07-25T11:33:19.982Z,1.52
2018-07-25T11:35:48.319Z,1.17
2018-07-25T11:38:16.782Z,1.30
2018-07-25T11:40:45.109Z,1.17
2018-07-25T11:43:13.490Z,1.20
2018-07-25T11:45:41.844Z,1.02
2018-07-25T11:48:10.206Z,1.37
2018-07-25T11:50:38.602Z,1.02
2018-07-25T11:53:06.964Z,1.42
2018-07-25T11:55:35.511Z,1.17
2018-07-25T11:58:03.759Z,1.25
2018-07-25T12:00:32.163Z,1.07
2018-07-25T12:03:00.599Z,1.17
2018-07-25T12:05:28.907Z,0.82
2018-07-25T12:07:57.422Z,0.93
2018-07-25T12:10:25.806Z,1.35
2018-07-25T12:12:54.392Z,1.00
2018-07-25T12:15:22.831Z,1.17
2018-07-25T12:17:51.205Z,1.47
2018-07-25T12:20:19.596Z,1.37
2018-07-25T12:22:47.994Z,0.90
2018-07-25T12:25:16.417Z,1.12
2018-07-25T12:27:44.807Z,1.20
2018-07-25T12:30:13.216Z,0.90
2018-07-25T12:32:41.590Z,0.78
2018-07-25T12:35:10.016Z,1.20
2018-07-25T12:37:38.391Z,0.98
2018-07-25T12:40:06.921Z,0.80
2018-07-25T12:42:35.328Z,0.88
2018-07-25T12:45:03.788Z,0.93
2018-07-25T12:47:32.185Z,1.20
2018-07-25T12:50:00.546Z,1.37
2018-07-25T12:52:28.943Z,1.10
2018-07-25T12:54:57.285Z,1.00
2018-07-25T12:57:25.688Z,0.88
2018-07-25T12:59:54.067Z,1.00
2018-07-25T13:02:22.461Z,1.20
2018-07-25T13:04:51.439Z,1.00
2018-07-25T13:07:19.863Z,1.25
2018-07-25T13:09:48.276Z,1.37
2018-07-25T13:12:16.668Z,1.12
2018-07-25T13:14:45.035Z,1.00
2018-07-25T13:17:13.555Z,1.00
2018-07-25T13:19:41.791Z,1.30
2018-07-25T13:22:10.200Z,1.10
2018-07-25T13:24:38.587Z,1.45
2018-07-25T13:27:06.721Z,1.15
2018-07-25T13:29:35.213Z,1.17
2018-07-25T13:32:03.629Z,1.10
2018-07-25T13:34:32.074Z,1.17
2018-07-25T13:37:00.580Z,1.12
2018-07-25T13:39:29.009Z,1.10
2018-07-25T13:41:57.443Z,0.90
2018-07-25T13:44:25.864Z,0.93
2018-07-25T13:46:54.279Z,1.55
2018-07-25T13:49:22.732Z,1.20
2018-07-25T13:51:51.233Z,1.12
2018-07-25T13:54:19.648Z,1.62
2018-07-25T13:56:48.099Z,1.50
2018-07-25T13:59:16.512Z,1.00
2018-07-25T14:01:44.891Z,1.32
2018-07-25T14:04:13.296Z,1.40
2018-07-25T14:06:41.675Z,1.25
2018-07-25T14:09:11.275Z,1.02
2018-07-25T14:11:40.094Z,1.00
2018-07-25T14:14:08.908Z,1.17
2018-07-25T14:16:37.309Z,1.47
2018-07-25T14:19:06.208Z,1.37
2018-07-25T14:21:34.662Z,1.32
2018-07-25T14:24:03.293Z,1.20
2018-07-25T14:26:31.474Z,1.00
2018-07-25T14:28:59.967Z,0.95
2018-07-25T14:31:28.586Z,1.02
2018-07-25T14:33:57.097Z,1.12
2018-07-25T14:36:25.633Z,1.15
2018-07-25T14:38:55.051Z,1.20
2018-07-25T14:41:23.524Z,1.45
2018-07-25T14:43:52.000Z,1.00
2018-07-25T14:46:20.428Z,1.22
2018-07-25T14:48:48.808Z,1.00
2018-07-25T14:51:17.478Z,1.57
2018-07-25T14:53:46.380Z,1.27
2018-07-25T14:56:14.778Z,1.72
2018-07-25T14:58:43.156Z,1.20
2018-07-25T15:01:11.599Z,1.30
2018-07-25T15:03:39.992Z,1.22
2018-07-25T15:06:08.404Z,1.17
2018-07-25T15:08:36.908Z,1.40
2018-07-25T15:11:05.420Z,1.60
2018-07-25T15:13:33.802Z,1.60
2018-07-25T15:16:02.351Z,1.32
2018-07-25T15:18:30.767Z,1.10
2018-07-25T15:20:59.152Z,1.20
2018-07-25T15:23:38.997Z,1.00
2018-07-25T15:26:07.334Z,1.10
2018-07-25T15:28:35.708Z,1.20
2018-07-25T15:31:04.140Z,1.62
2018-07-25T15:33:32.533Z,1.70
2018-07-25T15:36:00.924Z,1.02
2018-07-25T15:38:29.344Z,0.93
2018-07-25T15:40:57.825Z,1.57
2018-07-25T15:43:26.240Z,1.65
2018-07-25T15:45:54.715Z,3.77
2018-07-25T15:48:23.081Z,1.20
2018-07-25T15:50:51.585Z,1.30
2018-07-25T15:53:19.981Z,0.90
2018-07-25T15:55:48.373Z,1.00
2018-07-25T15:58:16.776Z,1.10
2018-07-25T16:00:45.177Z,1.02
2018-07-25T16:03:13.546Z,1.02
2018-07-25T16:05:41.939Z,1.25
2018-07-25T16:08:10.333Z,1.02
2018-07-25T16:10:38.716Z,1.10
2018-07-25T16:13:07.089Z,1.17
2018-07-25T16:15:35.554Z,1.17
2018-07-25T16:18:03.876Z,1.22
2018-07-25T16:20:32.290Z,1.05
2018-07-25T16:23:00.685Z,0.80
2018-07-25T16:25:28.798Z,1.47
2018-07-25T16:27:57.250Z,1.60
2018-07-25T16:30:25.394Z,11.65
2018-07-25T16:32:53.841Z,5.03
2018-07-25T16:35:22.276Z,4.53
2018-07-25T16:37:50.652Z,1.10
2018-07-25T16:40:19.139Z,1.30
2018-07-25T16:42:47.269Z,1.20
2018-07-25T16:45:15.682Z,1.22
2018-07-25T16:47:44.142Z,1.30
2018-07-25T16:50:12.552Z,1.07
2018-07-25T16:52:40.960Z,1.42
2018-07-25T16:55:09.374Z,1.17
2018-07-25T16:57:37.752Z,1.05
2018-07-25T17:00:06.187Z,1.57
2018-07-25T17:02:34.671Z,1.05
2018-07-25T17:05:03.069Z,1.75
2018-07-25T17:07:31.505Z,1.40
2018-07-25T17:09:59.860Z,1.10
2018-07-25T17:12:28.406Z,0.78
2018-07-25T17:14:56.771Z,1.37
2018-07-25T17:17:25.283Z,1.17
2018-07-25T17:19:53.772Z,1.32
2018-07-25T17:22:22.235Z,1.35
2018-07-25T17:24:50.515Z,1.10
2018-07-25T17:27:18.997Z,1.15
2018-07-25T17:29:47.570Z,1.20
2018-07-25T17:32:16.002Z,1.05
2018-07-25T17:34:44.199Z,1.05
2018-07-25T17:37:12.652Z,0.88
2018-07-25T17:39:41.040Z,1.00
2018-07-25T17:42:09.496Z,1.17
2018-07-25T17:44:38.801Z,1.10
2018-07-25T17:47:07.211Z,1.33
2018-07-25T17:49:35.573Z,1.20
2018-07-25T17:52:04.063Z,1.07
2018-07-25T17:54:33.460Z,1.47
2018-07-25T17:57:02.049Z,0.93
2018-07-25T17:59:34.612Z,1.35
2018-07-25T18:02:03.013Z,1.30
2018-07-25T18:04:31.113Z,1.20
2018-07-25T18:06:59.590Z,1.35
2018-07-25T18:09:28.227Z,1.70
2018-07-25T18:11:56.611Z,1.20
2018-07-25T18:14:25.089Z,1.62
2018-07-25T18:16:53.646Z,1.42
2018-07-25T18:19:25.394Z,1.40
2018-07-25T18:21:54.490Z,1.25
2018-07-25T18:24:22.854Z,1.50
2018-07-25T18:26:51.234Z,1.65
2018-07-25T18:29:19.685Z,1.40
2018-07-25T18:31:50.134Z,2.00
2018-07-25T18:34:18.545Z,1.32
2018-07-25T18:36:47.023Z,1.50
2018-07-25T18:39:15.417Z,1.37
2018-07-25T18:41:44.067Z,1.67
2018-07-25T18:44:16.117Z,1.90
2018-07-25T18:46:45.236Z,2.05
2018-07-25T18:49:14.117Z,1.62
2018-07-25T18:51:42.466Z,1.45
2018-07-25T18:54:10.852Z,1.47
2018-07-25T18:56:40.677Z,1.75
2018-07-25T18:59:09.380Z,1.87
2018-07-25T19:01:37.792Z,1.50
2018-07-25T19:04:06.530Z,1.52
2018-07-25T19:06:34.911Z,1.70
2018-07-25T19:09:03.302Z,1.60
2018-07-25T19:11:31.627Z,1.65
2018-07-25T19:14:05.408Z,1.80
2018-07-25T19:16:33.857Z,1.37
2018-07-25T19:19:02.245Z,1.82
2018-07-25T19:21:30.616Z,1.70
2018-07-25T19:23:59.060Z,1.95
2018-07-25T19:26:28.224Z,1.70
2018-07-25T19:28:56.599Z,1.90
2018-07-25T19:31:24.960Z,1.65
2018-07-25T19:33:53.367Z,2.00
2018-07-25T19:36:21.799Z,1.55
2018-07-25T19:38:50.463Z,2.05
2018-07-25T19:41:18.838Z,1.95
2018-07-25T19:43:47.205Z,1.60
2018-07-25T19:46:20.058Z,1.62
2018-07-25T19:48:48.472Z,1.27
2018-07-25T19:51:16.865Z,1.60
2018-07-25T19:53:45.230Z,1.98
2018-07-25T19:56:13.575Z,1.50
2018-07-25T19:58:41.995Z,2.02
2018-07-25T20:01:10.456Z,1.52
2018-07-25T20:03:38.796Z,1.27
2018-07-25T20:06:07.190Z,1.15
2018-07-25T20:08:35.655Z,1.47
2018-07-25T20:11:04.076Z,1.30
2018-07-25T20:13:32.974Z,1.90
2018-07-25T20:16:02.353Z,1.27
2018-07-25T20:18:31.253Z,1.00
2018-07-25T20:20:59.650Z,1.30
2018-07-25T20:23:28.526Z,1.45
2018-07-25T20:25:56.910Z,1.60
2018-07-25T20:28:25.334Z,1.47
2018-07-25T20:30:53.693Z,1.50
2018-07-25T20:33:22.220Z,1.42
2018-07-25T20:35:50.604Z,1.22
2018-07-25T20:38:19.052Z,1.98
2018-07-25T20:40:47.428Z,1.50
2018-07-25T20:43:15.808Z,1.40
2018-07-25T20:45:44.176Z,1.55
2018-07-25T20:48:12.524Z,1.47
2018-07-25T20:50:42.929Z,1.52
2018-07-25T20:53:11.329Z,2.00
2018-07-25T20:55:39.720Z,1.50
2018-07-25T20:58:08.668Z,1.40
2018-07-25T21:00:37.078Z,1.70
2018-07-25T21:03:06.846Z,1.20
2018-07-25T21:05:35.427Z,1.60
2018-07-25T21:08:03.799Z,1.60
2018-07-25T21:10:32.234Z,1.20
2018-07-25T21:13:00.611Z,2.05
2018-07-25T21:15:28.974Z,1.00
2018-07-25T21:17:57.335Z,2.00
2018-07-25T21:20:25.715Z,1.35
2018-07-25T21:22:54.095Z,1.65
2018-07-25T21:25:22.501Z,1.87
2018-07-25T21:27:50.829Z,1.50
2018-07-25T21:30:19.199Z,1.50
2018-07-25T21:32:47.292Z,1.92
2018-07-25T21:35:15.683Z,1.50
2018-07-25T21:37:44.047Z,1.77
2018-07-25T21:40:12.388Z,1.87
2018-07-25T21:42:40.752Z,1.67
2018-07-25T21:45:09.103Z,1.47
2018-07-25T21:47:37.487Z,1.45
2018-07-25T21:50:06.047Z,1.87
2018-07-25T21:52:34.832Z,1.00
2018-07-25T21:55:03.237Z,1.40
2018-07-25T21:57:31.559Z,1.70
2018-07-25T21:59:59.990Z,1.95
2018-07-25T22:02:28.405Z,1.30
2018-07-25T22:04:56.805Z,1.67
2018-07-25T22:07:25.142Z,1.10
2018-07-25T22:09:53.519Z,1.50
2018-07-25T22:12:21.889Z,1.62
2018-07-25T22:14:50.432Z,1.57
2018-07-25T22:17:18.830Z,1.50
2018-07-25T22:19:47.284Z,1.57
2018-07-25T22:22:15.651Z,1.50
2018-07-25T22:24:44.039Z,1.57
2018-07-25T22:27:12.600Z,1.85
2018-07-25T22:29:41.007Z,1.90
2018-07-25T22:32:09.872Z,1.65
2018-07-25T22:34:38.208Z,1.50
2018-07-25T22:37:06.744Z,1.60
2018-07-25T22:39:35.133Z,1.70
2018-07-25T22:42:03.466Z,1.25
2018-07-25T22:44:31.978Z,1.65
2018-07-25T22:47:00.330Z,1.47
2018-07-25T22:49:28.688Z,1.27
2018-07-25T22:51:57.110Z,1.57
2018-07-25T22:54:25.477Z,1.67
2018-07-25T22:56:53.845Z,1.67
2018-07-25T22:59:22.204Z,1.90
2018-07-25T23:01:50.688Z,1.70
2018-07-25T23:04:19.062Z,1.57
2018-07-25T23:06:47.491Z,2.05
2018-07-25T23:09:15.838Z,1.90
2018-07-25T23:11:44.193Z,1.62
2018-07-25T23:14:12.563Z,2.15
2018-07-25T23:16:40.980Z,1.85
2018-07-25T23:19:09.384Z,1.77
2018-07-25T23:21:37.765Z,2.10
2018-07-25T23:24:06.163Z,1.50
2018-07-25T23:26:34.508Z,1.80
2018-07-25T23:29:02.855Z,1.42
2018-07-25T23:31:31.241Z,1.40
2018-07-25T23:33:59.591Z,1.45
2018-07-25T23:36:27.948Z,2.00
2018-07-25T23:38:56.276Z,1.57
2018-07-25T23:41:24.662Z,1.52
2018-07-25T23:43:52.989Z,2.17
2018-07-25T23:46:21.360Z,1.92
2018-07-25T23:48:49.683Z,1.65
2018-07-25T23:51:18.064Z,2.00
2018-07-25T23:53:46.376Z,2.08
2018-07-25T23:56:14.731Z,2.02
2018-07-25T23:58:43.090Z,1.80
